メインページ
METAR-TAF:

METAR-TAF

空港 :

エドモントン, アルバータ州, カナダ

エドモントン国際空港

緯度: 53-18N, 経度: 113-35W, 海抜: 715m

現時点の気象観測

当レポートは1時間8分前の11:00(UTC)に作成
南/南東の風 9kt
気温 -3°C
湿度 86%
気圧 1014 hPa
視程: 24.1km
晴天

METAR: CYEG 241100Z 15009KT 15SM SKC M03/M05 A2993 RMK SLP170

時間: 06:08 (12:08 UTC)

予報

当レポートは19分前の11:49(UTC)に作成
予報は24日の 12時(UTC)から 25日の 12時(UTC)まで有効
南/南東の風 6kt
視程: 10km
晴天
24日の 12時(UTC)から 24日の 16時(UTC)まで一時的に
視程: 3.2km
高度400ftの雲は散在している
確率 40%
24日の 12時(UTC)から 24日の 16時(UTC)まで
視程: 0.8km
高度200ftの
着氷性の霧
24日の 1600時(UTC)から
南/南東の風 10kt
視程: 10km
高度8000ftの雲はほとんどない
高度12000ftの雲は散在している
高度24000ftの千切れ雲あり
24日の 18時(UTC)から 24日の 20時(UTC)まで徐々に
南東の風 18kt、最大28ktの突風を伴う
25日の 0400時(UTC)から
西の風 5kt
視程: 10km
高度8000ftの千切れ雲あり
高度14000ftの千切れ雲あり
25日の 1000時(UTC)から
変向風 3kt
視程: 10km
高度14000ftの雲はほとんどない
高度24000ftの雲は散在している
25日の 10時(UTC)から 25日の 12時(UTC)まで一時的に
視程: 3.2km

TAF: CYEG 241149Z 2412/2512 16006KT P6SM SKC TEMPO 2412/2416 2SM BR SCT004 PROB40 2412/2416 1/2SM FZFG VV002 FM241600 15010KT P6SM FEW080 SCT120 BKN240 BECMG 2418/2420 13018G28KT FM250400 28005KT P6SM BKN080 BKN140 FM251000 VRB03KT P6SM FEW140 SCT240 TEMPO 2510/2512 2SM BR RMK NXT FCST BY 241500Z

4,000以上の空港の気象観測と天気予報(METAR報とTAF報)

利用可能な観測所は地図上に黄色い丸と赤い丸で示す。

丸の上にカーソルを重ねると観測所名を参照できる。

次にクリックすると気象観測と天気予報を参照できる。

マップの切り替え:黒色「×」印の緑ボタンをクリックして拡大、「-」印の緑ボタンをクリックして縮小、緑色の三角印をクリックして隣りの地図に切り替え


METAR-TAF: